Time;durP1;ratioP1;P1;durP2;ratioP2;P2;SDS_P1;SDS_P2;PMS_P1;PMS_P2;Temp;Humidity;BMP_temperature;BMP_pressure;BME280_temperature;BME280_humidity;BME280_pressure;Samples;Min_cycle;Max_cycle;Signal;HPM_P1;HPM_P2
2021/12/27 17:42:11;;;;;;;24.50;15.70;;;;;;;-6.56;60.23;99596.50;5005899;28;105984;-66
2021/12/27 17:44:36;;;;;;;13.70;12.23;;;;;;;-6.51;60.81;99594.47;5003948;28;106123;-68
2021/12/27 17:47:03;;;;;;;37.50;16.93;;;;;;;-6.41;60.97;99591.44;5004330;28;106226;-66
2021/12/27 17:49:31;;;;;;;47.10;21.57;;;;;;;-6.31;60.57;99600.44;5003205;28;106132;-64
2021/12/27 17:51:58;;;;;;;45.00;22.00;;;;;;;-6.22;60.88;99597.41;5015386;27;106385;-67
2021/12/27 17:54:25;;;;;;;36.17;21.00;;;;;;;-6.14;61.18;99594.38;4984500;27;106211;-63
2021/12/27 17:56:51;;;;;;;35.47;20.53;;;;;;;-6.06;61.23;99588.81;4989852;28;106420;-66
2021/12/27 17:59:16;;;;;;;44.33;22.53;;;;;;;-5.98;62.22;99586.66;4981815;28;106475;-67
2021/12/27 18:01:41;;;;;;;34.23;19.53;;;;;;;-5.91;61.25;99602.72;4982188;28;106039;-67
2021/12/27 18:04:07;;;;;;;36.50;16.77;;;;;;;-5.85;61.82;99595.47;4983990;28;105998;-66
2021/12/27 18:06:32;;;;;;;49.70;23.20;;;;;;;-5.81;62.20;99594.38;4983473;28;106341;-64
2021/12/27 18:08:58;;;;;;;49.10;22.90;;;;;;;-5.80;61.96;99593.44;4983105;28;105997;-66
2021/12/27 18:11:24;;;;;;;42.93;19.87;;;;;;;-5.78;61.40;99591.59;4982771;28;106054;-64
2021/12/27 18:13:50;;;;;;;55.17;25.00;;;;;;;-5.74;62.36;99592.31;4983188;28;105915;-65
2021/12/27 18:16:15;;;;;;;47.43;23.47;;;;;;;-5.73;62.42;99585.34;4982850;28;106010;-63
2021/12/27 18:18:42;;;;;;;35.87;17.73;;;;;;;-5.69;62.27;99581.66;4982523;28;106001;-65
2021/12/27 18:21:09;;;;;;;38.53;17.77;;;;;;;-5.67;62.59;99577.22;4982727;28;105891;-65
2021/12/27 18:23:34;;;;;;;53.37;21.13;;;;;;;-5.69;62.26;99576.47;4983645;28;106899;-66
2021/12/27 18:26:01;;;;;;;48.22;23.73;;;;;;;-5.68;62.46;99580.75;4982893;28;105893;-63
2021/12/27 18:28:27;;;;;;;55.87;24.67;;;;;;;-5.67;61.81;99587.59;4982954;28;106314;-66
2021/12/27 18:30:53;;;;;;;53.03;23.75;;;;;;;-5.65;62.23;99590.97;4982133;28;106329;-65
2021/12/27 18:33:19;;;;;;;46.95;21.85;;;;;;;-5.64;61.98;99577.06;4983269;28;105946;-61
2021/12/27 18:35:47;;;;;;;48.20;20.83;;;;;;;-5.65;62.75;99578.81;4982676;28;106152;-64
2021/12/27 18:38:13;;;;;;;48.83;22.57;;;;;;;-5.66;62.33;99586.69;4982448;28;105917;-67
2021/12/27 18:40:39;;;;;;;37.40;17.77;;;;;;;-5.67;62.60;99591.03;4982211;28;106431;-63
2021/12/27 18:43:04;;;;;;;48.23;23.20;;;;;;;-5.69;62.58;99587.69;4983289;28;106057;-66
2021/12/27 18:45:29;;;;;;;41.17;21.60;;;;;;;-5.70;62.54;99583.44;4982555;28;105922;-68
2021/12/27 18:47:55;;;;;;;50.20;23.30;;;;;;;-5.73;63.14;99586.16;4982461;28;105985;-67
2021/12/27 18:50:20;;;;;;;46.70;23.67;;;;;;;-5.74;63.16;99586.25;4982633;28;106128;-64
2021/12/27 18:52:45;;;;;;;31.80;17.33;;;;;;;-5.75;62.40;99584.56;4974620;28;106124;-63
2021/12/27 18:55:15;;;;;;;50.20;24.53;;;;;;;-5.79;63.31;99584.75;4969756;28;106132;-65
2021/12/27 18:57:42;;;;;;;41.97;18.43;;;;;;;-5.81;63.47;99584.00;4968465;28;105986;-65
2021/12/27 19:00:09;;;;;;;49.17;22.63;;;;;;;-5.86;62.98;99585.16;4969004;28;107001;-65
2021/12/27 19:02:35;;;;;;;53.70;23.57;;;;;;;-5.87;63.51;99586.91;4969683;28;106635;-67
2021/12/27 19:05:01;;;;;;;47.00;24.67;;;;;;;-5.89;63.71;99590.50;4968874;28;106283;-64
2021/12/27 19:07:26;;;;;;;54.13;25.53;;;;;;;-5.89;63.37;99586.16;4968317;28;105813;-66
2021/12/27 19:09:52;;;;;;;51.87;26.23;;;;;;;-5.90;62.68;99587.06;4968730;28;106644;-65
2021/12/27 19:12:17;;;;;;;42.73;21.57;;;;;;;-5.90;63.06;99576.69;4969579;28;106187;-67
2021/12/27 19:14:43;;;;;;;43.03;22.07;;;;;;;-5.93;63.14;99574.28;4968936;28;106143;-62
2021/12/27 19:17:08;;;;;;;53.93;25.73;;;;;;;-5.96;63.03;99574.41;4968848;28;106009;-64
2021/12/27 19:19:33;;;;;;;44.63;23.87;;;;;;;-5.98;63.28;99584.91;4968338;28;106020;-66
2021/12/27 19:21:59;;;;;;;48.87;22.70;;;;;;;-6.01;63.70;99574.69;4969196;28;106059;-67
2021/12/27 19:24:24;;;;;;;37.50;17.43;;;;;;;-6.05;63.45;99567.16;4968449;28;105986;-64
2021/12/27 19:26:50;;;;;;;49.27;23.77;;;;;;;-6.10;63.55;99569.97;4968731;28;105981;-62
2021/12/27 19:29:15;;;;;;;27.10;15.90;;;;;;;-6.17;63.77;99569.44;4968642;28;105988;-65
2021/12/27 19:31:41;;;;;;;27.40;15.37;;;;;;;-6.22;63.72;99568.88;4969445;28;105938;-66
2021/12/27 19:34:06;;;;;;;31.50;17.20;;;;;;;-6.27;64.58;99573.44;4968994;28;106171;-62
2021/12/27 19:36:31;;;;;;;36.83;17.17;;;;;;;-6.31;64.13;99584.88;4968780;28;106008;-63
2021/12/27 19:38:57;;;;;;;54.77;24.30;;;;;;;-6.36;63.50;99585.09;4968736;28;106556;-60
2021/12/27 19:41:23;;;;;;;55.63;24.00;;;;;;;-6.39;64.58;99579.25;4968538;28;106347;-62
2021/12/27 19:43:48;;;;;;;27.47;17.80;;;;;;;-6.39;64.49;99585.28;4968572;28;106258;-62
2021/12/27 19:46:14;;;;;;;35.07;18.87;;;;;;;-6.39;64.84;99579.25;4968255;28;106714;-63
2021/12/27 19:48:39;;;;;;;45.57;20.17;;;;;;;-6.42;64.15;99579.38;4966533;28;110333;-62
2021/12/27 19:51:06;;;;;;;32.50;17.43;;;;;;;-6.44;64.54;99589.84;4968382;28;106020;-62
2021/12/27 19:53:32;;;;;;;41.23;20.10;;;;;;;-6.46;64.85;99589.09;4967976;28;106399;-63
2021/12/27 19:55:58;;;;;;;38.03;19.20;;;;;;;-6.46;64.20;99582.16;4966698;28;106290;-62
2021/12/27 19:58:23;;;;;;;34.93;18.47;;;;;;;-6.49;64.25;99579.72;4967026;28;106098;-63
2021/12/27 20:00:49;;;;;;;36.77;17.23;;;;;;;-6.51;64.40;99578.13;4968173;28;106110;-62
2021/12/27 20:03:16;;;;;;;29.23;14.40;;;;;;;-6.52;64.82;99573.84;4968761;28;106296;-64
2021/12/27 20:05:42;;;;;;;40.77;22.23;;;;;;;-6.58;65.11;99574.97;4968157;28;106032;-64
2021/12/27 20:08:09;;;;;;;32.23;17.47;;;;;;;-6.60;65.27;99582.00;4968775;28;106033;-62
2021/12/27 20:10:35;;;;;;;44.43;21.03;;;;;;;-6.64;64.88;99570.13;4969832;28;105867;-63
2021/12/27 20:13:00;;;;;;;43.37;18.13;;;;;;;-6.65;65.13;99571.03;4968922;28;105682;-61
2021/12/27 20:15:30;;;;;;;34.60;16.87;;;;;;;-6.67;64.53;99571.09;4968708;28;106603;-61
2021/12/27 20:17:56;;;;;;;40.87;18.80;;;;;;;-6.69;65.24;99561.72;4968334;28;106176;-63
2021/12/27 20:20:25;;;;;;;34.53;18.73;;;;;;;-6.72;65.57;99565.31;4969434;28;106083;-62
2021/12/27 20:22:50;;;;;;;27.50;15.37;;;;;;;-6.72;65.12;99574.84;4968569;28;105883;-63
2021/12/27 20:25:16;;;;;;;35.47;19.00;;;;;;;-6.74;64.77;99571.47;4968760;28;105745;-62
2021/12/27 20:27:41;;;;;;;23.67;14.10;;;;;;;-6.75;65.54;99562.03;4968827;28;105902;-63
2021/12/27 20:30:08;;;;;;;36.67;19.43;;;;;;;-6.76;64.79;99560.38;4969449;28;106045;-65
2021/12/27 20:32:34;;;;;;;45.10;19.30;;;;;;;-6.78;64.82;99572.53;4968931;28;106175;-64
2021/12/27 20:34:59;;;;;;;39.73;17.47;;;;;;;-6.81;64.82;99566.63;4968482;28;106128;-63
2021/12/27 20:37:26;;;;;;;42.60;20.70;;;;;;;-6.81;65.39;99568.34;4968489;28;105991;-63
2021/12/27 20:39:53;;;;;;;38.33;20.07;;;;;;;-6.81;66.09;99574.38;4968789;28;106051;-63
2021/12/27 20:42:18;;;;;;;33.27;15.17;;;;;;;-6.81;65.75;99583.88;4969172;28;105814;-66
2021/12/27 20:44:44;;;;;;;37.00;17.70;;;;;;;-6.80;66.12;99580.41;4968240;28;105807;-65
2021/12/27 20:47:09;;;;;;;40.57;17.40;;;;;;;-6.80;65.37;99577.81;4968645;28;105831;-62
2021/12/27 20:49:34;;;;;;;33.50;17.27;;;;;;;-6.80;66.24;99589.00;4969214;28;106005;-66
2021/12/27 20:52:00;;;;;;;39.03;18.70;;;;;;;-6.80;65.85;99586.41;4968704;28;106370;-65
2021/12/27 20:54:26;;;;;;;34.87;17.60;;;;;;;-6.78;66.51;99572.53;4968520;28;106004;-66
2021/12/27 20:56:51;;;;;;;24.67;12.57;;;;;;;-6.76;65.52;99581.09;4968252;28;106806;-65
2021/12/27 20:59:18;;;;;;;33.93;12.80;;;;;;;-6.77;65.91;99579.41;4969261;28;105991;-65
2021/12/27 21:01:43;;;;;;;25.63;14.37;;;;;;;-6.77;66.58;99585.41;4967940;28;106160;-64
2021/12/27 21:04:09;;;;;;;37.50;17.53;;;;;;;-6.75;66.73;99583.59;4967980;28;106145;-64
2021/12/27 21:06:36;;;;;;;35.47;18.93;;;;;;;-6.73;65.63;99591.28;4967909;28;109933;-61
2021/12/27 21:09:04;;;;;;;41.17;22.57;;;;;;;-6.72;65.58;99590.38;4968515;28;106080;-65
2021/12/27 21:11:29;;;;;;;37.83;19.73;;;;;;;-6.71;65.81;99599.81;4968166;28;106249;-66
2021/12/27 21:13:55;;;;;;;36.67;15.87;;;;;;;-6.68;66.03;99592.75;4968230;28;105757;-65
2021/12/27 21:16:22;;;;;;;33.77;16.57;;;;;;;-6.67;66.42;99601.34;4967913;28;105921;-66
2021/12/27 21:18:48;;;;;;;36.50;20.43;;;;;;;-6.65;66.92;99602.94;4969124;28;105820;-66
2021/12/27 21:21:13;;;;;;;35.63;17.60;;;;;;;-6.65;66.28;99594.34;4968302;28;106160;-66
2021/12/27 21:23:39;;;;;;;36.73;18.40;;;;;;;-6.66;65.86;99590.06;4967886;28;107347;-66
2021/12/27 21:26:04;;;;;;;41.30;18.47;;;;;;;-6.65;66.94;99595.19;4967866;28;106143;-65
2021/12/27 21:28:30;;;;;;;32.33;14.63;;;;;;;-6.65;66.92;99599.53;4968660;28;106263;-65
2021/12/27 21:30:56;;;;;;;20.50;12.37;;;;;;;-6.65;66.08;99602.94;4968099;28;106140;-63
2021/12/27 21:33:21;;;;;;;30.33;15.63;;;;;;;-6.62;65.94;99596.78;4967678;28;106007;-66
2021/12/27 21:35:47;;;;;;;17.87;13.20;;;;;;;-6.60;66.94;99602.75;4967878;28;106053;-65
2021/12/27 21:38:12;;;;;;;33.73;17.23;;;;;;;-6.60;66.58;99596.69;4968783;28;106411;-66
2021/12/27 21:40:38;;;;;;;28.97;15.93;;;;;;;-6.63;65.97;99595.94;4968036;28;106775;-67
2021/12/27 21:43:04;;;;;;;40.60;18.53;;;;;;;-6.63;66.25;99595.09;4967479;28;105803;-67
2021/12/27 21:45:29;;;;;;;37.67;16.43;;;;;;;-6.68;66.18;99594.50;4967666;28;105984;-67
2021/12/27 21:47:56;;;;;;;37.43;17.00;;;;;;;-6.71;66.15;99595.50;4968647;28;106000;-66
2021/12/27 21:50:25;;;;;;;29.23;15.20;;;;;;;-6.74;66.50;99587.84;4968466;28;105709;-67
2021/12/27 21:52:56;;;;;;;35.07;17.50;;;;;;;-6.78;66.37;99577.72;4956644;28;105965;-65
2021/12/27 21:55:23;;;;;;;34.20;16.08;;;;;;;-6.81;66.25;99589.06;4947780;28;106008;-65
2021/12/27 21:57:49;;;;;;;35.57;17.10;;;;;;;-6.85;66.53;99585.81;4948713;28;105977;-65
2021/12/27 22:00:18;;;;;;;42.03;18.73;;;;;;;-6.89;66.84;99576.50;4948291;28;106155;-67
2021/12/27 22:02:43;;;;;;;32.13;17.47;;;;;;;-6.93;66.10;99595.66;4948044;28;106074;-66
